Time;durP1;ratioP1;P1;durP2;ratioP2;P2;SDS_P1;SDS_P2;PMS_P1;PMS_P2;Temp;Humidity;BMP_temperature;BMP_pressure;BME280_temperature;BME280_humidity;BME280_pressure;Samples;Min_cycle;Max_cycle;Signal;HPM_P1;HPM_P2
2022/09/21 00:00:57;;;;;;;4.85;2.80;;;;;;;;;;1707221;83;21098;-68
2022/09/21 00:03:23;;;;;;;4.15;2.70;;;;;;;;;;1707902;83;21095;-68
2022/09/21 00:05:50;;;;;;;2.77;2.27;;;;;;;;;;1714143;83;21517;-68
2022/09/21 00:08:17;;;;;;;2.45;2.20;;;;;;;;;;1710236;83;21028;-68
2022/09/21 00:10:46;;;;;;;3.22;2.20;;;;;;;;;;1709724;83;21058;-68
2022/09/21 00:13:12;;;;;;;2.75;1.80;;;;;;;;;;1718641;83;20988;-67
2022/09/21 00:15:39;;;;;;;3.15;2.40;;;;;;;;;;1707320;83;21017;-68
2022/09/21 00:18:06;;;;;;;4.65;2.67;;;;;;;;;;1713777;83;21026;-66
2022/09/21 00:20:33;;;;;;;3.42;2.02;;;;;;;;;;1710630;83;21027;-67
2022/09/21 00:22:59;;;;;;;2.58;2.08;;;;;;;;;;1709381;83;21041;-67
2022/09/21 00:25:25;;;;;;;3.65;2.50;;;;;;;;;;1705553;83;21067;-66
2022/09/21 00:27:53;;;;;;;2.60;2.08;;;;;;;;;;1707930;83;21114;-67
2022/09/21 00:30:19;;;;;;;3.65;2.35;;;;;;;;;;1707537;83;21102;-67
2022/09/21 00:32:46;;;;;;;3.45;2.52;;;;;;;;;;1716291;83;21104;-67
2022/09/21 00:35:12;;;;;;;3.02;2.20;;;;;;;;;;1710482;83;21736;-66
2022/09/21 00:37:39;;;;;;;4.33;2.30;;;;;;;;;;1705884;83;21012;-66
2022/09/21 00:40:06;;;;;;;3.12;2.45;;;;;;;;;;1696556;83;21041;-66
2022/09/21 00:42:33;;;;;;;3.87;2.20;;;;;;;;;;1716653;83;21600;-66
2022/09/21 00:44:59;;;;;;;4.42;2.80;;;;;;;;;;1699198;83;21084;-66
2022/09/21 00:47:27;;;;;;;3.22;2.45;;;;;;;;;;1702108;83;21047;-66
2022/09/21 00:49:54;;;;;;;3.15;2.37;;;;;;;;;;1713632;83;21050;-67
2022/09/21 00:52:21;;;;;;;3.85;2.60;;;;;;;;;;1712669;83;21044;-67
2022/09/21 00:54:55;;;;;;;2.98;2.40;;;;;;;;;;1705551;83;21106;-67
2022/09/21 00:57:22;;;;;;;3.02;2.30;;;;;;;;;;1702854;83;21135;-67
2022/09/21 00:59:49;;;;;;;3.70;2.50;;;;;;;;;;1709285;83;21046;-67
2022/09/21 01:05:12;;;;;;;4.05;2.45;;;;;;;;;;1727945;80;21156;-66
2022/09/21 01:07:40;;;;;;;3.10;2.58;;;;;;;;;;1732622;82;21044;-67
2022/09/21 01:10:08;;;;;;;3.75;2.65;;;;;;;;;;1735024;82;21117;-66
2022/09/21 01:12:39;;;;;;;3.10;2.62;;;;;;;;;;1733453;82;21064;-67
2022/09/21 01:15:16;;;;;;;6.75;2.90;;;;;;;;;;1731799;82;21061;-67
2022/09/21 01:17:44;;;;;;;4.67;3.25;;;;;;;;;;1730566;82;21101;-67
2022/09/21 01:20:12;;;;;;;2.52;2.00;;;;;;;;;;1734858;82;21552;-68
2022/09/21 01:22:55;;;;;;;2.45;2.10;;;;;;;;;;1734949;82;21513;-68
2022/09/21 01:25:23;;;;;;;3.85;2.50;;;;;;;;;;1735797;82;21021;-67
2022/09/21 01:28:09;;;;;;;2.77;2.15;;;;;;;;;;1734835;82;20994;-67
2022/09/21 01:30:36;;;;;;;2.42;2.20;;;;;;;;;;1733911;82;20982;-68
2022/09/21 01:33:07;;;;;;;2.87;2.22;;;;;;;;;;1731132;82;21038;-68
2022/09/21 01:35:36;;;;;;;4.67;2.60;;;;;;;;;;1734726;82;21559;-68
2022/09/21 01:38:03;;;;;;;4.00;2.72;;;;;;;;;;1727839;82;21040;-68
2022/09/21 01:40:31;;;;;;;3.98;2.65;;;;;;;;;;1737606;82;21051;-68
2022/09/21 01:42:58;;;;;;;3.40;2.50;;;;;;;;;;1736198;82;21075;-68
2022/09/21 01:45:29;;;;;;;4.10;2.60;;;;;;;;;;1738097;82;21019;-68
2022/09/21 01:47:57;;;;;;;3.30;2.65;;;;;;;;;;1738607;82;21001;-67
2022/09/21 01:50:23;;;;;;;4.03;2.80;;;;;;;;;;1733090;82;21567;-68
2022/09/21 01:52:54;;;;;;;3.77;2.60;;;;;;;;;;1737683;82;21015;-67
2022/09/21 01:55:28;;;;;;;3.65;2.80;;;;;;;;;;1737837;82;21067;-67
2022/09/21 01:58:03;;;;;;;3.47;2.72;;;;;;;;;;1738269;82;21063;-68
2022/09/21 02:00:29;;;;;;;4.03;2.80;;;;;;;;;;1735156;82;21028;-66
2022/09/21 02:03:07;;;;;;;3.72;2.70;;;;;;;;;;1713027;82;21023;-66
2022/09/21 02:05:35;;;;;;;4.28;2.58;;;;;;;;;;1704516;83;21060;-67
2022/09/21 02:08:01;;;;;;;3.22;2.55;;;;;;;;;;1701030;83;21032;-66
2022/09/21 02:10:35;;;;;;;3.67;2.50;;;;;;;;;;1703253;83;21060;-68
2022/09/21 02:13:02;;;;;;;3.85;2.90;;;;;;;;;;1704561;83;21008;-68
2022/09/21 02:15:33;;;;;;;5.35;2.70;;;;;;;;;;1702547;83;21060;-67
2022/09/21 02:18:01;;;;;;;2.70;2.30;;;;;;;;;;1700078;83;21520;-68
2022/09/21 02:20:29;;;;;;;2.62;2.20;;;;;;;;;;1703345;83;21025;-68
2022/09/21 02:23:02;;;;;;;4.15;2.98;;;;;;;;;;1699128;83;21074;-67
2022/09/21 02:25:30;;;;;;;4.22;3.15;;;;;;;;;;1701125;83;21056;-68
2022/09/21 02:29:50;;;;;;;4.83;2.60;;;;;;;;;;1803211;79;22866;-68
2022/09/21 02:32:20;;;;;;;3.52;2.80;;;;;;;;;;1761884;81;21040;-68
2022/09/21 02:34:48;;;;;;;3.37;2.75;;;;;;;;;;1761662;81;21547;-68
2022/09/21 02:37:18;;;;;;;3.40;2.90;;;;;;;;;;1761732;81;21030;-68
2022/09/21 02:40:04;;;;;;;3.95;2.90;;;;;;;;;;1761161;81;21543;-68
2022/09/21 02:42:32;;;;;;;4.17;2.80;;;;;;;;;;1759196;81;21040;-68
2022/09/21 02:45:13;;;;;;;3.55;3.00;;;;;;;;;;1761538;81;21040;-69
2022/09/21 02:47:50;;;;;;;4.80;3.15;;;;;;;;;;1761427;81;22078;-69
2022/09/21 02:50:19;;;;;;;4.22;3.67;;;;;;;;;;1761432;81;21569;-69
2022/09/21 02:52:45;;;;;;;3.52;2.98;;;;;;;;;;1757554;81;21548;-69
2022/09/21 02:55:12;;;;;;;4.83;3.00;;;;;;;;;;1761409;81;21058;-69
2022/09/21 02:57:38;;;;;;;5.67;3.00;;;;;;;;;;1761282;81;21042;-69
2022/09/21 03:00:05;;;;;;;3.70;2.58;;;;;;;;;;1761453;81;21023;-69
2022/09/21 03:02:35;;;;;;;4.65;2.50;;;;;;;;;;1761467;81;21013;-69
2022/09/21 03:05:01;;;;;;;4.17;2.85;;;;;;;;;;1761520;81;20993;-69
2022/09/21 03:07:27;;;;;;;4.62;2.67;;;;;;;;;;1761492;81;21105;-68
2022/09/21 03:09:54;;;;;;;3.83;2.58;;;;;;;;;;1761164;81;21024;-69
2022/09/21 03:12:21;;;;;;;3.45;2.40;;;;;;;;;;1761601;81;21021;-69
2022/09/21 03:14:47;;;;;;;4.70;2.70;;;;;;;;;;1761516;81;20986;-68
2022/09/21 03:17:13;;;;;;;4.03;2.77;;;;;;;;;;1769819;80;21012;-69
2022/09/21 03:19:40;;;;;;;3.60;2.50;;;;;;;;;;1763952;80;21021;-69
2022/09/21 03:22:06;;;;;;;3.27;2.50;;;;;;;;;;1765916;80;21475;-69
2022/09/21 03:24:45;;;;;;;3.77;2.33;;;;;;;;;;1761957;80;20981;-69
2022/09/21 03:27:18;;;;;;;3.15;2.55;;;;;;;;;;1760400;80;21512;-69
2022/09/21 03:29:44;;;;;;;3.67;2.58;;;;;;;;;;1716176;83;21061;-69
2022/09/21 03:32:10;;;;;;;3.12;2.35;;;;;;;;;;1714617;82;21019;-69
2022/09/21 03:34:37;;;;;;;3.10;2.40;;;;;;;;;;1719707;82;21014;-68
2022/09/21 03:37:04;;;;;;;3.90;2.30;;;;;;;;;;1717698;82;21007;-69
2022/09/21 03:39:30;;;;;;;3.10;2.20;;;;;;;;;;1721899;82;21493;-68
2022/09/21 03:41:57;;;;;;;2.37;2.12;;;;;;;;;;1721685;82;21048;-68
2022/09/21 03:44:23;;;;;;;3.37;2.37;;;;;;;;;;1725784;82;21032;-69
2022/09/21 03:46:49;;;;;;;5.92;2.75;;;;;;;;;;1735179;82;21448;-69
2022/09/21 03:49:17;;;;;;;3.50;2.80;;;;;;;;;;1739165;82;21005;-69
2022/09/21 03:51:43;;;;;;;3.35;2.35;;;;;;;;;;1730608;82;21023;-68
2022/09/21 03:54:09;;;;;;;3.67;2.62;;;;;;;;;;1722364;82;20971;-69
2022/09/21 03:56:35;;;;;;;4.53;2.85;;;;;;;;;;1706695;82;21508;-68
2022/09/21 03:59:01;;;;;;;4.75;3.10;;;;;;;;;;1727093;82;21035;-68
2022/09/21 04:01:27;;;;;;;4.12;2.98;;;;;;;;;;1723961;82;21036;-68
2022/09/21 04:03:53;;;;;;;3.83;2.90;;;;;;;;;;1715971;82;21418;-68
2022/09/21 04:06:19;;;;;;;4.10;2.60;;;;;;;;;;1728186;82;21506;-68
2022/09/21 04:08:45;;;;;;;4.17;3.00;;;;;;;;;;1718203;82;21545;-69
2022/09/21 04:11:13;;;;;;;4.80;2.60;;;;;;;;;;1717830;83;21048;-69
2022/09/21 04:13:40;;;;;;;4.17;3.10;;;;;;;;;;1717735;82;21092;-69
2022/09/21 04:16:06;;;;;;;3.87;2.80;;;;;;;;;;1715236;82;21074;-68
2022/09/21 04:18:32;;;;;;;4.22;2.80;;;;;;;;;;1724332;82;21025;-69
2022/09/21 04:20:58;;;;;;;4.35;3.05;;;;;;;;;;1723260;82;21083;-69
2022/09/21 04:23:25;;;;;;;4.80;2.85;;;;;;;;;;1719919;82;21567;-69
2022/09/21 04:25:52;;;;;;;4.60;2.70;;;;;;;;;;1719551;82;21050;-69
2022/09/21 04:28:18;;;;;;;2.98;2.50;;;;;;;;;;1723834;82;21751;-69
2022/09/21 04:30:45;;;;;;;3.83;2.70;;;;;;;;;;1733942;81;21182;-69
2022/09/21 04:33:13;;;;;;;4.42;2.75;;;;;;;;;;1733090;81;21015;-69
2022/09/21 04:35:40;;;;;;;2.98;2.35;;;;;;;;;;1734133;81;21028;-70
2022/09/21 04:38:06;;;;;;;3.95;2.85;;;;;;;;;;1731258;82;20986;-69
2022/09/21 04:40:33;;;;;;;4.65;2.72;;;;;;;;;;1731922;81;21014;-69
2022/09/21 04:42:59;;;;;;;3.30;2.52;;;;;;;;;;1730879;82;21624;-69
2022/09/21 04:45:25;;;;;;;3.55;2.90;;;;;;;;;;1731739;82;21544;-68
2022/09/21 04:47:51;;;;;;;3.22;2.70;;;;;;;;;;1731528;81;21032;-69
2022/09/21 04:50:18;;;;;;;3.35;2.77;;;;;;;;;;1731023;82;21119;-69
2022/09/21 04:52:46;;;;;;;4.12;3.08;;;;;;;;;;1730643;83;21005;-70
2022/09/21 04:55:12;;;;;;;2.85;2.30;;;;;;;;;;1732792;81;21497;-69
2022/09/21 04:57:39;;;;;;;4.28;2.70;;;;;;;;;;1736873;81;21075;-70
2022/09/21 05:00:06;;;;;;;3.65;2.85;;;;;;;;;;1729471;82;21064;-69
2022/09/21 05:02:32;;;;;;;3.83;2.80;;;;;;;;;;1733716;81;21629;-69
2022/09/21 05:04:58;;;;;;;4.12;2.90;;;;;;;;;;1730835;82;21057;-69
2022/09/21 05:07:25;;;;;;;3.80;3.00;;;;;;;;;;1726471;83;21049;-69
2022/09/21 05:10:03;;;;;;;3.52;2.70;;;;;;;;;;1730830;82;21034;-69
2022/09/21 05:12:30;;;;;;;4.20;3.05;;;;;;;;;;1727795;83;21027;-69
2022/09/21 05:14:57;;;;;;;4.53;3.02;;;;;;;;;;1731662;82;21043;-70
2022/09/21 05:17:23;;;;;;;3.40;2.55;;;;;;;;;;1728586;82;21508;-69
2022/09/21 05:19:50;;;;;;;4.62;3.05;;;;;;;;;;1734672;81;21511;-70
2022/09/21 05:22:18;;;;;;;3.80;2.95;;;;;;;;;;1730894;82;21048;-69
2022/09/21 05:24:45;;;;;;;3.47;2.40;;;;;;;;;;1727290;81;21015;-69
2022/09/21 05:27:11;;;;;;;3.83;2.70;;;;;;;;;;1729823;82;20981;-69
2022/09/21 05:29:38;;;;;;;4.17;2.80;;;;;;;;;;1725146;82;21131;-68
2022/09/21 05:32:07;;;;;;;4.78;2.60;;;;;;;;;;1723788;82;21144;-69
2022/09/21 05:34:36;;;;;;;101.75;14.85;;;;;;;;;;1726258;82;22094;-68
2022/09/21 05:37:04;;;;;;;43.33;5.95;;;;;;;;;;1730367;81;21082;-69
2022/09/21 05:39:30;;;;;;;3.00;2.25;;;;;;;;;;1726934;82;21581;-69
2022/09/21 05:41:57;;;;;;;4.30;2.50;;;;;;;;;;1725514;82;21070;-70
2022/09/21 05:44:25;;;;;;;3.20;2.45;;;;;;;;;;1728909;81;21559;-70
2022/09/21 05:47:07;;;;;;;3.00;2.50;;;;;;;;;;1727877;81;21046;-70
2022/09/21 05:49:55;;;;;;;3.22;2.40;;;;;;;;;;1723893;82;21050;-69
2022/09/21 05:52:23;;;;;;;3.67;3.00;;;;;;;;;;1725620;83;21068;-69
2022/09/21 05:54:52;;;;;;;4.35;2.62;;;;;;;;;;1725627;83;21080;-70
2022/09/21 05:57:35;;;;;;;3.10;2.55;;;;;;;;;;1725752;82;21058;-69
2022/09/21 06:00:03;;;;;;;5.20;3.47;;;;;;;;;;1726797;81;21088;-70
2022/09/21 06:02:50;;;;;;;4.75;3.08;;;;;;;;;;1729033;81;22287;-69
2022/09/21 06:05:16;;;;;;;5.15;2.52;;;;;;;;;;1723833;83;21076;-69
2022/09/21 06:07:43;;;;;;;3.30;2.35;;;;;;;;;;1725746;83;21524;-69
2022/09/21 06:10:12;;;;;;;3.58;2.40;;;;;;;;;;1725501;83;21062;-71
2022/09/21 06:12:39;;;;;;;4.17;2.62;;;;;;;;;;1725518;83;21064;-70
2022/09/21 06:15:07;;;;;;;5.47;2.55;;;;;;;;;;1721742;83;21076;-70
2022/09/21 06:17:36;;;;;;;5.33;2.55;;;;;;;;;;1725450;83;21070;-70
2022/09/21 06:20:05;;;;;;;5.45;2.90;;;;;;;;;;1725588;83;21030;-69
2022/09/21 06:22:32;;;;;;;3.20;2.30;;;;;;;;;;1725715;82;21009;-69
2022/09/21 06:24:58;;;;;;;5.37;3.10;;;;;;;;;;1725861;83;21106;-69
2022/09/21 06:27:24;;;;;;;2.65;2.40;;;;;;;;;;1725764;82;21114;-70
2022/09/21 06:29:52;;;;;;;3.52;2.58;;;;;;;;;;1734845;82;21057;-70
2022/09/21 06:32:18;;;;;;;3.25;2.45;;;;;;;;;;1723540;83;21576;-69
2022/09/21 06:34:44;;;;;;;3.15;2.40;;;;;;;;;;1723158;82;21040;-70
2022/09/21 06:37:10;;;;;;;3.60;2.50;;;;;;;;;;1723547;83;21050;-70
2022/09/21 06:39:36;;;;;;;3.67;2.52;;;;;;;;;;1723175;83;21091;-70
2022/09/21 06:42:03;;;;;;;4.65;2.40;;;;;;;;;;1723267;83;21048;-69
2022/09/21 06:44:29;;;;;;;4.10;2.58;;;;;;;;;;1723491;83;21490;-70
2022/09/21 06:46:55;;;;;;;3.67;2.62;;;;;;;;;;1723223;83;21018;-70
2022/09/21 06:49:23;;;;;;;3.92;2.60;;;;;;;;;;1727171;82;21015;-70
2022/09/21 06:51:49;;;;;;;4.28;2.62;;;;;;;;;;1728579;82;21055;-70
2022/09/21 06:54:17;;;;;;;3.22;2.27;;;;;;;;;;1721973;82;21062;-70
2022/09/21 06:56:43;;;;;;;2.72;2.20;;;;;;;;;;1726777;82;21453;-70
2022/09/21 06:59:11;;;;;;;3.50;2.30;;;;;;;;;;1723075;83;21046;-70
2022/09/21 07:01:37;;;;;;;4.75;2.60;;;;;;;;;;1723419;82;21471;-70
2022/09/21 07:04:03;;;;;;;3.62;2.40;;;;;;;;;;1723294;83;21042;-69
2022/09/21 07:06:32;;;;;;;4.75;2.65;;;;;;;;;;1725352;82;21020;-70
2022/09/21 07:08:58;;;;;;;2.72;2.40;;;;;;;;;;1723621;82;22174;-70
2022/09/21 07:11:26;;;;;;;2.50;2.25;;;;;;;;;;1723990;82;21083;-69
2022/09/21 07:13:53;;;;;;;3.92;2.67;;;;;;;;;;1723624;83;21060;-69
2022/09/21 07:16:20;;;;;;;4.05;2.50;;;;;;;;;;1723434;83;21098;-69
2022/09/21 07:18:47;;;;;;;3.75;2.50;;;;;;;;;;1723349;83;21359;-70
2022/09/21 07:21:15;;;;;;;3.67;2.40;;;;;;;;;;1722997;83;22159;-69
2022/09/21 07:23:41;;;;;;;3.67;2.42;;;;;;;;;;1723143;82;21109;-70
2022/09/21 07:26:09;;;;;;;4.08;2.40;;;;;;;;;;1723635;82;21525;-70
2022/09/21 07:28:36;;;;;;;3.15;2.25;;;;;;;;;;1723172;83;21086;-70
2022/09/21 07:31:07;;;;;;;7.78;2.60;;;;;;;;;;1716766;82;21092;-69
2022/09/21 07:33:34;;;;;;;2.42;2.05;;;;;;;;;;1718069;82;20968;-69
2022/09/21 07:36:05;;;;;;;3.27;2.10;;;;;;;;;;1718496;82;21064;-69
2022/09/21 07:38:30;;;;;;;2.22;2.02;;;;;;;;;;1716929;83;21078;-68
2022/09/21 07:40:56;;;;;;;2.67;2.12;;;;;;;;;;1718076;82;21156;-69
2022/09/21 07:43:22;;;;;;;3.27;2.27;;;;;;;;;;1713756;83;21047;-70
2022/09/21 07:45:54;;;;;;;3.00;2.30;;;;;;;;;;1717932;83;21085;-70
2022/09/21 07:48:21;;;;;;;3.33;2.65;;;;;;;;;;1718300;83;21052;-70
2022/09/21 07:50:48;;;;;;;2.62;2.22;;;;;;;;;;1717815;83;21053;-69
2022/09/21 07:53:16;;;;;;;2.67;2.25;;;;;;;;;;1717768;83;21062;-68
2022/09/21 07:55:43;;;;;;;4.85;2.45;;;;;;;;;;1718099;83;21056;-69
2022/09/21 08:00:56;;;;;;;2.83;2.20;;;;;;;;;;1718108;83;21095;-69
2022/09/21 08:03:22;;;;;;;3.33;2.40;;;;;;;;;;1718086;83;21023;-69
2022/09/21 08:05:48;;;;;;;3.70;2.58;;;;;;;;;;1717878;83;21080;-69
2022/09/21 08:08:15;;;;;;;3.55;2.50;;;;;;;;;;1724898;82;21548;-70
2022/09/21 08:10:43;;;;;;;3.10;2.50;;;;;;;;;;1717140;83;21045;-70
2022/09/21 08:13:10;;;;;;;3.92;2.70;;;;;;;;;;1716804;83;21616;-69
2022/09/21 08:15:37;;;;;;;3.20;2.50;;;;;;;;;;1709859;83;21108;-71
2022/09/21 08:18:06;;;;;;;3.37;2.80;;;;;;;;;;1718187;83;21549;-70
2022/09/21 08:20:32;;;;;;;3.85;2.60;;;;;;;;;;1717881;83;21021;-68
2022/09/21 08:22:59;;;;;;;3.67;3.00;;;;;;;;;;1717717;83;21039;-69
2022/09/21 08:25:26;;;;;;;3.87;2.70;;;;;;;;;;1715690;82;21020;-69
2022/09/21 08:27:56;;;;;;;4.60;3.00;;;;;;;;;;1719806;82;21576;-70
2022/09/21 08:30:26;;;;;;;3.30;2.83;;;;;;;;;;1725704;82;22180;-69
2022/09/21 08:32:53;;;;;;;3.83;3.20;;;;;;;;;;1731191;81;21048;-70
2022/09/21 08:35:20;;;;;;;4.28;3.05;;;;;;;;;;1730816;81;21052;-70
2022/09/21 08:37:46;;;;;;;7.45;2.98;;;;;;;;;;1735470;81;21017;-69
2022/09/21 08:40:14;;;;;;;3.98;2.95;;;;;;;;;;1730717;83;21026;-69
2022/09/21 08:42:43;;;;;;;4.87;3.05;;;;;;;;;;1714514;83;21009;-70
2022/09/21 08:45:14;;;;;;;3.52;2.70;;;;;;;;;;1727259;82;21049;-69
2022/09/21 08:47:43;;;;;;;3.80;2.60;;;;;;;;;;1730884;83;20957;-70
2022/09/21 08:50:23;;;;;;;5.45;3.10;;;;;;;;;;1727500;83;21045;-70
2022/09/21 08:52:50;;;;;;;3.98;2.83;;;;;;;;;;1727620;83;21492;-72
2022/09/21 08:55:17;;;;;;;3.90;2.90;;;;;;;;;;1732394;82;21069;-71
2022/09/21 08:57:43;;;;;;;3.42;2.60;;;;;;;;;;1725936;82;21117;-69
2022/09/21 09:00:13;;;;;;;5.58;3.12;;;;;;;;;;1726922;83;21045;-70
2022/09/21 09:02:44;;;;;;;5.58;2.98;;;;;;;;;;1730842;82;21026;-70
2022/09/21 09:05:29;;;;;;;4.87;2.95;;;;;;;;;;1730814;82;21017;-69
2022/09/21 09:08:02;;;;;;;3.37;2.90;;;;;;;;;;1724301;83;21566;-70
2022/09/21 09:10:36;;;;;;;4.42;3.08;;;;;;;;;;1727466;83;21091;-70
2022/09/21 09:13:02;;;;;;;;;;;;;;;;;;1733429;83;21097;-69
2022/09/21 09:15:31;;;;;;;4.90;2.75;;;;;;;;;;1739501;81;20140;-70
2022/09/21 09:17:59;;;;;;;6.65;3.33;;;;;;;;;;1736843;81;21088;-69
2022/09/21 09:20:29;;;;;;;4.47;2.90;;;;;;;;;;1730959;83;21060;-70
2022/09/21 09:22:57;;;;;;;4.47;2.80;;;;;;;;;;1731917;81;21100;-71
2022/09/21 09:25:23;;;;;;;5.20;3.12;;;;;;;;;;1730328;82;21109;-70
2022/09/21 09:27:51;;;;;;;3.95;2.90;;;;;;;;;;1731052;81;21129;-70
2022/09/21 09:30:24;;;;;;;3.95;2.98;;;;;;;;;;1732953;81;21657;-69
2022/09/21 09:32:52;;;;;;;4.47;2.80;;;;;;;;;;1737823;81;21523;-69
2022/09/21 09:35:22;;;;;;;4.35;2.87;;;;;;;;;;1722322;83;21115;-70
2022/09/21 09:37:48;;;;;;;3.37;2.83;;;;;;;;;;1730963;83;21575;-70
2022/09/21 09:40:16;;;;;;;3.87;2.62;;;;;;;;;;1730595;82;21010;-70
2022/09/21 09:42:44;;;;;;;3.60;2.70;;;;;;;;;;1732224;81;21055;-69
2022/09/21 09:45:17;;;;;;;3.45;2.60;;;;;;;;;;1732800;81;21052;-70
2022/09/21 09:47:46;;;;;;;4.42;2.90;;;;;;;;;;1754961;81;21008;-69
2022/09/21 09:50:23;;;;;;;5.00;2.65;;;;;;;;;;1756319;81;21534;-69
2022/09/21 09:52:53;;;;;;;3.20;2.50;;;;;;;;;;1724592;82;21091;-69
2022/09/21 09:55:19;;;;;;;3.37;2.50;;;;;;;;;;1731473;82;21056;-69
2022/09/21 09:57:46;;;;;;;4.60;2.85;;;;;;;;;;1734439;81;21510;-70
2022/09/21 10:00:13;;;;;;;4.15;2.50;;;;;;;;;;1730638;83;21543;-70
2022/09/21 10:02:50;;;;;;;3.83;2.92;;;;;;;;;;1733304;81;21169;-68
2022/09/21 10:05:23;;;;;;;4.28;2.85;;;;;;;;;;1730397;82;21028;-69
2022/09/21 10:07:51;;;;;;;;;;;;;;;;;;1729489;83;21107;-69
2022/09/21 10:10:35;;;;;;;4.25;2.60;;;;;;;;;;1731361;82;20131;-70
2022/09/21 10:13:11;;;;;;;4.35;2.72;;;;;;;;;;1729266;83;21048;-69
2022/09/21 10:15:43;;;;;;;3.37;2.20;;;;;;;;;;1729031;83;21560;-69
2022/09/21 10:18:12;;;;;;;3.15;2.30;;;;;;;;;;1726917;83;21107;-69
2022/09/21 10:20:39;;;;;;;2.85;2.20;;;;;;;;;;1731789;81;21048;-70
2022/09/21 10:23:05;;;;;;;6.37;2.40;;;;;;;;;;1731874;81;21056;-70
2022/09/21 10:25:31;;;;;;;2.72;2.17;;;;;;;;;;1730922;82;21155;-69
2022/09/21 10:27:58;;;;;;;4.72;2.62;;;;;;;;;;1730777;83;21069;-70
2022/09/21 10:30:34;;;;;;;3.12;2.20;;;;;;;;;;1724938;82;21037;-69
2022/09/21 10:33:00;;;;;;;3.20;2.40;;;;;;;;;;1718092;83;21007;-69
2022/09/21 10:35:26;;;;;;;3.37;2.47;;;;;;;;;;1717747;83;21045;-70
2022/09/21 10:38:13;;;;;;;3.10;2.40;;;;;;;;;;1710973;83;21017;-70
2022/09/21 10:40:41;;;;;;;2.80;2.27;;;;;;;;;;1716307;82;21045;-70
2022/09/21 10:43:10;;;;;;;4.08;2.50;;;;;;;;;;1720677;82;21023;-70
2022/09/21 10:45:41;;;;;;;3.00;2.17;;;;;;;;;;1718960;82;21591;-70
2022/09/21 10:48:09;;;;;;;2.40;2.15;;;;;;;;;;1719539;82;21017;-69
2022/09/21 10:50:41;;;;;;;2.65;2.27;;;;;;;;;;1721146;82;21565;-69
2022/09/21 10:53:10;;;;;;;3.52;2.40;;;;;;;;;;1718404;82;21014;-71
2022/09/21 10:55:42;;;;;;;3.72;2.42;;;;;;;;;;1717947;83;21489;-70
2022/09/21 10:58:09;;;;;;;4.70;2.50;;;;;;;;;;1717282;82;21458;-70
2022/09/21 11:00:42;;;;;;;3.60;2.30;;;;;;;;;;1720702;82;21080;-70
2022/09/21 11:03:30;;;;;;;3.42;2.30;;;;;;;;;;1718164;82;21045;-70
2022/09/21 11:05:58;;;;;;;3.70;2.50;;;;;;;;;;1717975;83;21132;-70
2022/09/21 11:08:45;;;;;;;4.42;2.40;;;;;;;;;;1718091;83;21514;-70
2022/09/21 11:11:29;;;;;;;4.17;2.50;;;;;;;;;;1713548;83;21092;-71
2022/09/21 11:14:00;;;;;;;4.17;2.62;;;;;;;;;;1714414;82;21027;-70
2022/09/21 11:16:34;;;;;;;4.45;2.92;;;;;;;;;;1720593;82;21000;-70
2022/09/21 11:19:03;;;;;;;4.17;2.60;;;;;;;;;;1725519;82;21026;-71
2022/09/21 11:21:31;;;;;;;4.55;2.50;;;;;;;;;;1715134;83;21543;-71
2022/09/21 11:23:59;;;;;;;4.78;2.58;;;;;;;;;;1724489;82;21492;-71
2022/09/21 11:26:36;;;;;;;3.17;2.42;;;;;;;;;;1718278;82;21034;-70
2022/09/21 11:29:06;;;;;;;3.08;2.33;;;;;;;;;;1717815;83;21108;-71
2022/09/21 11:31:56;;;;;;;3.47;2.30;;;;;;;;;;1720546;82;21049;-70
2022/09/21 11:34:29;;;;;;;3.62;2.45;;;;;;;;;;1723611;83;21064;-70
2022/09/21 11:37:00;;;;;;;4.40;2.80;;;;;;;;;;1727627;81;21358;-70
2022/09/21 11:39:39;;;;;;;4.08;2.50;;;;;;;;;;1725863;82;21060;-69
2022/09/21 11:42:10;;;;;;;4.87;2.52;;;;;;;;;;1726046;83;21032;-70
2022/09/21 11:44:48;;;;;;;3.77;2.98;;;;;;;;;;1725960;83;21033;-69
2022/09/21 11:47:20;;;;;;;5.10;2.92;;;;;;;;;;1726130;83;21674;-69
2022/09/21 11:49:48;;;;;;;3.95;2.40;;;;;;;;;;1721466;83;21080;-71
2022/09/21 11:52:20;;;;;;;4.70;2.60;;;;;;;;;;1725697;83;21584;-70
2022/09/21 11:54:51;;;;;;;3.35;2.60;;;;;;;;;;1726729;82;21014;-70
2022/09/21 11:57:32;;;;;;;5.33;2.80;;;;;;;;;;1725871;83;21068;-70
2022/09/21 12:00:19;;;;;;;3.08;2.17;;;;;;;;;;1723473;83;21017;-70
2022/09/21 12:02:59;;;;;;;4.72;2.70;;;;;;;;;;1725018;83;21116;-69
2022/09/21 12:05:28;;;;;;;4.45;2.55;;;;;;;;;;1728520;82;21045;-70
2022/09/21 12:07:59;;;;;;;3.47;2.50;;;;;;;;;;1725885;83;21109;-70
2022/09/21 12:10:30;;;;;;;3.45;2.62;;;;;;;;;;1725260;83;21056;-70
2022/09/21 12:12:58;;;;;;;4.45;2.50;;;;;;;;;;1725494;82;21539;-69
2022/09/21 12:15:31;;;;;;;4.58;2.55;;;;;;;;;;1747511;81;20976;-69
2022/09/21 12:18:09;;;;;;;5.70;2.90;;;;;;;;;;1725552;83;21014;-69
2022/09/21 12:20:43;;;;;;;7.42;3.40;;;;;;;;;;1722638;82;20998;-69
2022/09/21 12:23:13;;;;;;;5.10;3.02;;;;;;;;;;1725316;83;21011;-70
2022/09/21 12:25:41;;;;;;;4.05;2.22;;;;;;;;;;1727134;81;21087;-70
2022/09/21 12:28:15;;;;;;;4.12;2.52;;;;;;;;;;1738038;81;21553;-69
2022/09/21 12:30:44;;;;;;;3.22;2.40;;;;;;;;;;1725774;82;21052;-69
2022/09/21 12:33:16;;;;;;;3.90;2.10;;;;;;;;;;1709376;84;21052;-71
2022/09/21 12:35:43;;;;;;;3.77;1.92;;;;;;;;;;1711187;83;20987;-70
2022/09/21 12:38:11;;;;;;;2.15;1.80;;;;;;;;;;1711292;83;21035;-71
2022/09/21 12:40:42;;;;;;;4.10;2.27;;;;;;;;;;1711248;84;21507;-70
2022/09/21 12:43:22;;;;;;;2.27;2.02;;;;;;;;;;1660149;86;21103;-70
2022/09/21 12:45:52;;;;;;;2.42;1.92;;;;;;;;;;1704509;83;22107;-70
2022/09/21 12:48:37;;;;;;;2.60;1.90;;;;;;;;;;1711084;84;21088;-70
2022/09/21 12:51:15;;;;;;;2.72;2.17;;;;;;;;;;1707806;83;21054;-71
2022/09/21 12:53:43;;;;;;;3.47;2.08;;;;;;;;;;1709482;83;21008;-70
2022/09/21 12:56:17;;;;;;;3.42;2.20;;;;;;;;;;1711339;83;21545;-70
2022/09/21 12:59:00;;;;;;;2.40;1.80;;;;;;;;;;1711464;83;21095;-69
2022/09/21 13:01:28;;;;;;;1.62;1.50;;;;;;;;;;1710815;83;21019;-70
2022/09/21 13:04:02;;;;;;;2.22;1.80;;;;;;;;;;1663033;84;21111;-68
2022/09/21 13:06:47;;;;;;;2.02;1.70;;;;;;;;;;1711698;83;21067;-70
2022/09/21 13:09:14;;;;;;;3.67;1.90;;;;;;;;;;1706483;84;21015;-69
2022/09/21 13:11:55;;;;;;;2.33;1.70;;;;;;;;;;1664922;86;21060;-70
2022/09/21 13:14:23;;;;;;;2.62;1.90;;;;;;;;;;1708620;84;21059;-70
2022/09/21 13:16:56;;;;;;;2.20;1.80;;;;;;;;;;1707440;84;21515;-71
2022/09/21 13:19:24;;;;;;;3.55;1.90;;;;;;;;;;1710971;84;21099;-70
2022/09/21 13:22:12;;;;;;;4.05;2.17;;;;;;;;;;1711366;84;21067;-68
2022/09/21 13:24:37;;;;;;;3.00;1.92;;;;;;;;;;1710333;83;21082;-69
2022/09/21 13:27:05;;;;;;;3.00;2.12;;;;;;;;;;1711160;84;21130;-69
2022/09/21 13:29:34;;;;;;;3.00;2.27;;;;;;;;;;1711356;84;21040;-69
2022/09/21 13:32:04;;;;;;;3.40;2.40;;;;;;;;;;1713975;82;20962;-69
2022/09/21 13:34:35;;;;;;;5.42;2.90;;;;;;;;;;1709579;83;21553;-70
2022/09/21 13:37:12;;;;;;;6.25;3.02;;;;;;;;;;1708167;83;21026;-70
2022/09/21 13:39:43;;;;;;;4.00;2.67;;;;;;;;;;1705923;83;21280;-70
2022/09/21 13:42:28;;;;;;;4.08;2.50;;;;;;;;;;1709425;83;21046;-70
2022/09/21 13:44:55;;;;;;;4.10;2.50;;;;;;;;;;1704187;83;21086;-70
2022/09/21 13:47:35;;;;;;;3.83;2.40;;;;;;;;;;1710361;83;21069;-69
2022/09/21 13:50:03;;;;;;;3.67;2.70;;;;;;;;;;1709083;83;21566;-70
2022/09/21 13:52:33;;;;;;;3.50;2.75;;;;;;;;;;1709571;83;21058;-70
2022/09/21 13:55:00;;;;;;;3.25;2.70;;;;;;;;;;1706299;83;21058;-69
2022/09/21 13:57:37;;;;;;;3.92;2.70;;;;;;;;;;1712411;83;21011;-70
2022/09/21 14:00:05;;;;;;;3.70;2.40;;;;;;;;;;1710411;83;21058;-70
2022/09/21 14:02:37;;;;;;;3.90;2.20;;;;;;;;;;1693719;83;21103;-68
2022/09/21 14:05:23;;;;;;;4.53;2.40;;;;;;;;;;1691116;83;21042;-70
2022/09/21 14:07:54;;;;;;;6.03;2.60;;;;;;;;;;1713141;83;21061;-70
2022/09/21 14:10:20;;;;;;;4.80;3.02;;;;;;;;;;1716935;82;21090;-70
2022/09/21 14:12:46;;;;;;;6.60;3.75;;;;;;;;;;1705780;83;21560;-69
2022/09/21 14:15:18;;;;;;;4.25;2.77;;;;;;;;;;1681797;84;21027;-71
2022/09/21 14:17:44;;;;;;;4.87;2.92;;;;;;;;;;1632689;87;21606;-70
2022/09/21 14:20:30;;;;;;;6.90;2.85;;;;;;;;;;1632557;87;21047;-70
2022/09/21 14:23:13;;;;;;;3.60;2.37;;;;;;;;;;1629129;88;21035;-70
2022/09/21 14:25:50;;;;;;;5.50;2.45;;;;;;;;;;1645974;86;21023;-70
2022/09/21 14:28:17;;;;;;;3.83;2.25;;;;;;;;;;1705967;83;21206;-70
2022/09/21 14:30:51;;;;;;;2.60;2.12;;;;;;;;;;1712592;83;21056;-69
2022/09/21 14:33:19;;;;;;;4.78;1.90;;;;;;;;;;1706840;82;21027;-70
2022/09/21 14:35:46;;;;;;;5.87;1.90;;;;;;;;;;1717783;83;21021;-69
2022/09/21 14:38:14;;;;;;;2.25;1.90;;;;;;;;;;1710221;83;21015;-69
2022/09/21 14:40:42;;;;;;;2.35;1.72;;;;;;;;;;1717803;83;21049;-70
2022/09/21 14:43:14;;;;;;;3.55;2.02;;;;;;;;;;1717890;83;21092;-69
2022/09/21 14:46:58;;;;;;;2.37;1.77;;;;;;;;;;1803053;79;22772;-69
2022/09/21 14:49:33;;;;;;;2.25;1.95;;;;;;;;;;1762184;80;21042;-68
2022/09/21 14:52:04;;;;;;;2.00;1.80;;;;;;;;;;1758914;81;21160;-68
2022/09/21 14:54:41;;;;;;;4.78;2.22;;;;;;;;;;1761288;81;21751;-68
2022/09/21 14:57:13;;;;;;;2.70;2.00;;;;;;;;;;1761492;81;21450;-67
2022/09/21 14:59:57;;;;;;;2.70;1.90;;;;;;;;;;1761131;81;21108;-68
2022/09/21 15:02:24;;;;;;;2.67;2.00;;;;;;;;;;1748135;81;21122;-68
2022/09/21 15:05:10;;;;;;;2.72;2.00;;;;;;;;;;1727773;83;21099;-67
2022/09/21 15:13:11;;;;;;;4.03;2.70;;;;;;;;;;1727455;83;20996;-67